sensor_id;sensor_type;location;lat;lon;timestamp;P1;durP1;ratioP1;P2;durP2;ratioP2
67839;SDS011;54636;51.684;5.142;2022-07-23T00:02:19;6.15;;;4.30;;
67839;SDS011;54636;51.684;5.142;2022-07-23T00:04:45;4.68;;;4.03;;
67839;SDS011;54636;51.684;5.142;2022-07-23T00:07:10;5.15;;;4.32;;
67839;SDS011;54636;51.684;5.142;2022-07-23T00:09:35;8.13;;;4.60;;
67839;SDS011;54636;51.684;5.142;2022-07-23T00:12:01;4.43;;;4.00;;
67839;SDS011;54636;51.684;5.142;2022-07-23T00:14:26;4.88;;;3.83;;
67839;SDS011;54636;51.684;5.142;2022-07-23T00:16:51;5.00;;;3.70;;
67839;SDS011;54636;51.684;5.142;2022-07-23T00:19:17;9.75;;;4.38;;
67839;SDS011;54636;51.684;5.142;2022-07-23T00:21:42;5.18;;;3.90;;
67839;SDS011;54636;51.684;5.142;2022-07-23T00:24:09;3.67;;;3.42;;
67839;SDS011;54636;51.684;5.142;2022-07-23T00:26:34;3.92;;;3.63;;
67839;SDS011;54636;51.684;5.142;2022-07-23T00:28:59;10.52;;;3.92;;
67839;SDS011;54636;51.684;5.142;2022-07-23T00:31:25;4.55;;;3.88;;
67839;SDS011;54636;51.684;5.142;2022-07-23T00:33:50;4.22;;;3.90;;
67839;SDS011;54636;51.684;5.142;2022-07-23T00:36:15;4.50;;;3.40;;
67839;SDS011;54636;51.684;5.142;2022-07-23T00:38:41;6.65;;;5.07;;
67839;SDS011;54636;51.684;5.142;2022-07-23T00:41:06;6.22;;;3.90;;
67839;SDS011;54636;51.684;5.142;2022-07-23T00:43:32;3.97;;;3.53;;
67839;SDS011;54636;51.684;5.142;2022-07-23T00:45:57;8.38;;;3.60;;
67839;SDS011;54636;51.684;5.142;2022-07-23T00:48:23;10.25;;;3.42;;
67839;SDS011;54636;51.684;5.142;2022-07-23T00:50:48;4.20;;;3.50;;
67839;SDS011;54636;51.684;5.142;2022-07-23T00:53:14;3.78;;;3.45;;
67839;SDS011;54636;51.684;5.142;2022-07-23T00:55:40;5.38;;;3.15;;
67839;SDS011;54636;51.684;5.142;2022-07-23T00:58:06;3.63;;;3.40;;
67839;SDS011;54636;51.684;5.142;2022-07-23T01:00:33;6.35;;;3.53;;
67839;SDS011;54636;51.684;5.142;2022-07-23T01:02:58;6.28;;;3.00;;
67839;SDS011;54636;51.684;5.142;2022-07-23T01:05:24;8.57;;;3.58;;
67839;SDS011;54636;51.684;5.142;2022-07-23T01:07:50;4.40;;;3.58;;
67839;SDS011;54636;51.684;5.142;2022-07-23T01:10:16;3.35;;;3.03;;
67839;SDS011;54636;51.684;5.142;2022-07-23T01:13:04;3.72;;;3.13;;
67839;SDS011;54636;51.684;5.142;2022-07-23T01:15:32;5.40;;;3.15;;
67839;SDS011;54636;51.684;5.142;2022-07-23T01:17:59;3.50;;;3.20;;
67839;SDS011;54636;51.684;5.142;2022-07-23T01:20:25;8.50;;;3.38;;
67839;SDS011;54636;51.684;5.142;2022-07-23T01:22:52;9.55;;;3.53;;
67839;SDS011;54636;51.684;5.142;2022-07-23T01:25:18;7.45;;;3.63;;
67839;SDS011;54636;51.684;5.142;2022-07-23T01:27:44;4.78;;;3.00;;
67839;SDS011;54636;51.684;5.142;2022-07-23T01:30:10;3.60;;;3.40;;
67839;SDS011;54636;51.684;5.142;2022-07-23T01:32:36;3.95;;;3.40;;
67839;SDS011;54636;51.684;5.142;2022-07-23T01:35:02;3.78;;;2.90;;
67839;SDS011;54636;51.684;5.142;2022-07-23T01:37:27;6.63;;;3.40;;
67839;SDS011;54636;51.684;5.142;2022-07-23T01:39:53;3.83;;;3.40;;
67839;SDS011;54636;51.684;5.142;2022-07-23T01:42:18;6.88;;;3.95;;
67839;SDS011;54636;51.684;5.142;2022-07-23T01:44:43;4.32;;;3.30;;
67839;SDS011;54636;51.684;5.142;2022-07-23T01:47:09;5.07;;;4.05;;
67839;SDS011;54636;51.684;5.142;2022-07-23T01:49:34;4.28;;;3.50;;
67839;SDS011;54636;51.684;5.142;2022-07-23T01:52:00;3.90;;;3.60;;
67839;SDS011;54636;51.684;5.142;2022-07-23T01:54:28;3.75;;;3.45;;
67839;SDS011;54636;51.684;5.142;2022-07-23T01:56:56;4.03;;;3.58;;
67839;SDS011;54636;51.684;5.142;2022-07-23T01:59:21;3.78;;;3.58;;
67839;SDS011;54636;51.684;5.142;2022-07-23T02:01:47;6.40;;;3.22;;
67839;SDS011;54636;51.684;5.142;2022-07-23T02:04:13;7.65;;;3.40;;
67839;SDS011;54636;51.684;5.142;2022-07-23T02:06:39;5.75;;;3.63;;
67839;SDS011;54636;51.684;5.142;2022-07-23T02:09:04;5.97;;;4.00;;
67839;SDS011;54636;51.684;5.142;2022-07-23T02:11:30;3.80;;;3.50;;
67839;SDS011;54636;51.684;5.142;2022-07-23T02:13:55;4.10;;;3.85;;
67839;SDS011;54636;51.684;5.142;2022-07-23T02:16:20;11.23;;;4.93;;
67839;SDS011;54636;51.684;5.142;2022-07-23T02:18:46;6.20;;;3.90;;
67839;SDS011;54636;51.684;5.142;2022-07-23T02:21:12;3.97;;;3.70;;
67839;SDS011;54636;51.684;5.142;2022-07-23T02:23:37;5.32;;;3.67;;
67839;SDS011;54636;51.684;5.142;2022-07-23T02:26:03;5.55;;;4.88;;
67839;SDS011;54636;51.684;5.142;2022-07-23T02:28:29;6.05;;;4.47;;
67839;SDS011;54636;51.684;5.142;2022-07-23T02:30:55;7.70;;;4.90;;
67839;SDS011;54636;51.684;5.142;2022-07-23T02:33:20;7.03;;;4.65;;
67839;SDS011;54636;51.684;5.142;2022-07-23T02:35:45;6.03;;;4.43;;
67839;SDS011;54636;51.684;5.142;2022-07-23T02:38:11;9.10;;;4.95;;
67839;SDS011;54636;51.684;5.142;2022-07-23T02:40:36;5.72;;;4.65;;
67839;SDS011;54636;51.684;5.142;2022-07-23T02:43:02;6.32;;;5.15;;
67839;SDS011;54636;51.684;5.142;2022-07-23T02:45:27;6.10;;;5.05;;
67839;SDS011;54636;51.684;5.142;2022-07-23T02:47:53;7.75;;;5.43;;
67839;SDS011;54636;51.684;5.142;2022-07-23T02:50:18;5.78;;;5.20;;
67839;SDS011;54636;51.684;5.142;2022-07-23T02:52:43;7.55;;;5.35;;
67839;SDS011;54636;51.684;5.142;2022-07-23T02:55:09;7.07;;;5.30;;
67839;SDS011;54636;51.684;5.142;2022-07-23T02:57:35;7.82;;;5.68;;
67839;SDS011;54636;51.684;5.142;2022-07-23T03:00:00;6.95;;;6.15;;
67839;SDS011;54636;51.684;5.142;2022-07-23T03:02:26;7.43;;;5.85;;
67839;SDS011;54636;51.684;5.142;2022-07-23T03:04:51;7.20;;;6.25;;
67839;SDS011;54636;51.684;5.142;2022-07-23T03:07:17;6.55;;;5.65;;
67839;SDS011;54636;51.684;5.142;2022-07-23T03:09:43;5.45;;;4.95;;
67839;SDS011;54636;51.684;5.142;2022-07-23T03:12:08;7.40;;;5.20;;
67839;SDS011;54636;51.684;5.142;2022-07-23T03:14:34;5.30;;;4.80;;
67839;SDS011;54636;51.684;5.142;2022-07-23T03:16:59;7.63;;;6.47;;
67839;SDS011;54636;51.684;5.142;2022-07-23T03:19:25;5.20;;;4.70;;
67839;SDS011;54636;51.684;5.142;2022-07-23T03:21:51;7.00;;;5.22;;
67839;SDS011;54636;51.684;5.142;2022-07-23T03:24:16;6.50;;;5.28;;
67839;SDS011;54636;51.684;5.142;2022-07-23T03:26:45;6.50;;;5.07;;
67839;SDS011;54636;51.684;5.142;2022-07-23T03:29:10;7.18;;;5.40;;
67839;SDS011;54636;51.684;5.142;2022-07-23T03:31:36;6.35;;;5.40;;
67839;SDS011;54636;51.684;5.142;2022-07-23T03:34:01;9.02;;;5.82;;
67839;SDS011;54636;51.684;5.142;2022-07-23T03:36:27;6.43;;;5.10;;
67839;SDS011;54636;51.684;5.142;2022-07-23T03:38:52;5.65;;;5.13;;
67839;SDS011;54636;51.684;5.142;2022-07-23T03:41:19;6.40;;;5.80;;
67839;SDS011;54636;51.684;5.142;2022-07-23T03:43:45;6.18;;;5.65;;
67839;SDS011;54636;51.684;5.142;2022-07-23T03:46:11;8.38;;;5.25;;
67839;SDS011;54636;51.684;5.142;2022-07-23T03:48:37;8.68;;;5.18;;
67839;SDS011;54636;51.684;5.142;2022-07-23T03:51:02;12.18;;;5.53;;
67839;SDS011;54636;51.684;5.142;2022-07-23T03:53:28;8.75;;;5.38;;
67839;SDS011;54636;51.684;5.142;2022-07-23T03:55:54;7.35;;;5.40;;
67839;SDS011;54636;51.684;5.142;2022-07-23T03:58:19;6.00;;;5.18;;
67839;SDS011;54636;51.684;5.142;2022-07-23T04:00:44;8.00;;;5.78;;
67839;SDS011;54636;51.684;5.142;2022-07-23T04:03:10;5.43;;;4.95;;
67839;SDS011;54636;51.684;5.142;2022-07-23T04:05:35;5.72;;;5.15;;
67839;SDS011;54636;51.684;5.142;2022-07-23T04:08:01;12.00;;;5.30;;
67839;SDS011;54636;51.684;5.142;2022-07-23T04:10:26;6.30;;;5.43;;
67839;SDS011;54636;51.684;5.142;2022-07-23T04:12:51;8.90;;;6.35;;
67839;SDS011;54636;51.684;5.142;2022-07-23T04:15:17;7.38;;;5.78;;
67839;SDS011;54636;51.684;5.142;2022-07-23T04:17:42;5.93;;;5.20;;
67839;SDS011;54636;51.684;5.142;2022-07-23T04:20:09;5.82;;;5.32;;
67839;SDS011;54636;51.684;5.142;2022-07-23T04:22:35;10.10;;;6.25;;
67839;SDS011;54636;51.684;5.142;2022-07-23T04:25:01;6.88;;;5.40;;
67839;SDS011;54636;51.684;5.142;2022-07-23T04:27:26;8.75;;;5.07;;
67839;SDS011;54636;51.684;5.142;2022-07-23T04:29:52;8.88;;;5.38;;
67839;SDS011;54636;51.684;5.142;2022-07-23T04:32:17;7.13;;;5.75;;
67839;SDS011;54636;51.684;5.142;2022-07-23T04:34:42;5.93;;;5.13;;
67839;SDS011;54636;51.684;5.142;2022-07-23T04:37:08;6.22;;;5.68;;
67839;SDS011;54636;51.684;5.142;2022-07-23T04:39:33;9.60;;;6.25;;
67839;SDS011;54636;51.684;5.142;2022-07-23T04:41:58;7.03;;;5.70;;
67839;SDS011;54636;51.684;5.142;2022-07-23T04:44:24;7.45;;;6.05;;
67839;SDS011;54636;51.684;5.142;2022-07-23T04:46:49;7.30;;;5.75;;
67839;SDS011;54636;51.684;5.142;2022-07-23T04:49:15;11.80;;;6.00;;
67839;SDS011;54636;51.684;5.142;2022-07-23T04:51:40;9.20;;;5.50;;
67839;SDS011;54636;51.684;5.142;2022-07-23T04:54:05;6.95;;;6.35;;
67839;SDS011;54636;51.684;5.142;2022-07-23T04:56:31;8.52;;;6.00;;
67839;SDS011;54636;51.684;5.142;2022-07-23T04:58:56;6.38;;;5.80;;
67839;SDS011;54636;51.684;5.142;2022-07-23T05:01:22;7.57;;;5.30;;
67839;SDS011;54636;51.684;5.142;2022-07-23T05:03:47;5.90;;;5.40;;
67839;SDS011;54636;51.684;5.142;2022-07-23T05:06:13;9.05;;;5.53;;
67839;SDS011;54636;51.684;5.142;2022-07-23T05:08:39;5.78;;;5.18;;
67839;SDS011;54636;51.684;5.142;2022-07-23T05:11:04;6.93;;;5.82;;
67839;SDS011;54636;51.684;5.142;2022-07-23T05:13:30;7.90;;;5.57;;
67839;SDS011;54636;51.684;5.142;2022-07-23T05:15:55;7.05;;;5.82;;
67839;SDS011;54636;51.684;5.142;2022-07-23T05:18:21;6.72;;;5.97;;
67839;SDS011;54636;51.684;5.142;2022-07-23T05:20:46;8.38;;;6.13;;
67839;SDS011;54636;51.684;5.142;2022-07-23T05:23:12;6.88;;;6.20;;
67839;SDS011;54636;51.684;5.142;2022-07-23T05:25:37;8.40;;;6.18;;
67839;SDS011;54636;51.684;5.142;2022-07-23T05:28:03;7.20;;;5.80;;
67839;SDS011;54636;51.684;5.142;2022-07-23T05:30:28;7.28;;;6.32;;
67839;SDS011;54636;51.684;5.142;2022-07-23T05:32:54;7.05;;;6.35;;
67839;SDS011;54636;51.684;5.142;2022-07-23T05:35:19;13.10;;;6.80;;
67839;SDS011;54636;51.684;5.142;2022-07-23T05:37:45;10.18;;;7.20;;
67839;SDS011;54636;51.684;5.142;2022-07-23T05:40:10;14.75;;;7.32;;
67839;SDS011;54636;51.684;5.142;2022-07-23T05:42:40;9.07;;;7.43;;
67839;SDS011;54636;51.684;5.142;2022-07-23T05:45:06;7.70;;;7.10;;
67839;SDS011;54636;51.684;5.142;2022-07-23T05:47:43;8.25;;;7.43;;
67839;SDS011;54636;51.684;5.142;2022-07-23T05:50:09;11.77;;;7.15;;
67839;SDS011;54636;51.684;5.142;2022-07-23T05:52:35;10.18;;;6.82;;
67839;SDS011;54636;51.684;5.142;2022-07-23T05:55:00;9.70;;;7.38;;
67839;SDS011;54636;51.684;5.142;2022-07-23T05:57:26;6.97;;;6.35;;
67839;SDS011;54636;51.684;5.142;2022-07-23T05:59:51;10.13;;;6.72;;
67839;SDS011;54636;51.684;5.142;2022-07-23T06:02:17;12.90;;;6.70;;
67839;SDS011;54636;51.684;5.142;2022-07-23T06:04:42;9.65;;;7.10;;
67839;SDS011;54636;51.684;5.142;2022-07-23T06:07:07;7.40;;;6.80;;
67839;SDS011;54636;51.684;5.142;2022-07-23T06:09:33;8.13;;;6.38;;
67839;SDS011;54636;51.684;5.142;2022-07-23T06:11:58;9.63;;;6.70;;
67839;SDS011;54636;51.684;5.142;2022-07-23T06:14:23;7.72;;;6.60;;
67839;SDS011;54636;51.684;5.142;2022-07-23T06:16:49;7.80;;;7.00;;
67839;SDS011;54636;51.684;5.142;2022-07-23T06:19:14;12.43;;;7.20;;
67839;SDS011;54636;51.684;5.142;2022-07-23T06:21:39;11.40;;;7.32;;
67839;SDS011;54636;51.684;5.142;2022-07-23T06:24:05;7.53;;;6.47;;
67839;SDS011;54636;51.684;5.142;2022-07-23T06:26:30;7.32;;;6.47;;
67839;SDS011;54636;51.684;5.142;2022-07-23T06:28:56;15.40;;;7.15;;
67839;SDS011;54636;51.684;5.142;2022-07-23T06:31:21;9.05;;;6.07;;
67839;SDS011;54636;51.684;5.142;2022-07-23T06:33:47;9.50;;;7.13;;
67839;SDS011;54636;51.684;5.142;2022-07-23T06:36:12;7.45;;;6.43;;
67839;SDS011;54636;51.684;5.142;2022-07-23T06:38:37;7.38;;;5.88;;
67839;SDS011;54636;51.684;5.142;2022-07-23T06:41:03;7.05;;;5.72;;
67839;SDS011;54636;51.684;5.142;2022-07-23T06:43:29;6.70;;;5.80;;
67839;SDS011;54636;51.684;5.142;2022-07-23T06:45:55;11.52;;;7.63;;
67839;SDS011;54636;51.684;5.142;2022-07-23T06:48:21;7.88;;;5.00;;
67839;SDS011;54636;51.684;5.142;2022-07-23T06:50:47;5.43;;;4.25;;
67839;SDS011;54636;51.684;5.142;2022-07-23T06:53:12;7.03;;;5.38;;
67839;SDS011;54636;51.684;5.142;2022-07-23T06:55:41;4.90;;;4.50;;
67839;SDS011;54636;51.684;5.142;2022-07-23T06:58:06;12.35;;;4.97;;
67839;SDS011;54636;51.684;5.142;2022-07-23T07:00:34;5.05;;;3.55;;
67839;SDS011;54636;51.684;5.142;2022-07-23T07:02:59;4.68;;;3.63;;
67839;SDS011;54636;51.684;5.142;2022-07-23T07:05:25;4.30;;;3.60;;
67839;SDS011;54636;51.684;5.142;2022-07-23T07:07:52;5.05;;;3.60;;
67839;SDS011;54636;51.684;5.142;2022-07-23T07:10:19;3.95;;;3.42;;
67839;SDS011;54636;51.684;5.142;2022-07-23T07:12:44;3.58;;;3.10;;
67839;SDS011;54636;51.684;5.142;2022-07-23T07:15:10;8.15;;;3.55;;
67839;SDS011;54636;51.684;5.142;2022-07-23T07:17:36;3.42;;;3.13;;
67839;SDS011;54636;51.684;5.142;2022-07-23T07:20:01;4.53;;;3.03;;
67839;SDS011;54636;51.684;5.142;2022-07-23T07:22:27;4.03;;;2.53;;
67839;SDS011;54636;51.684;5.142;2022-07-23T07:24:52;3.03;;;2.60;;
67839;SDS011;54636;51.684;5.142;2022-07-23T07:27:18;8.57;;;1.98;;
67839;SDS011;54636;51.684;5.142;2022-07-23T07:29:43;4.38;;;2.65;;
67839;SDS011;54636;51.684;5.142;2022-07-23T07:32:09;4.18;;;2.35;;
67839;SDS011;54636;51.684;5.142;2022-07-23T07:34:34;5.57;;;2.50;;
67839;SDS011;54636;51.684;5.142;2022-07-23T07:37:00;2.85;;;2.17;;
67839;SDS011;54636;51.684;5.142;2022-07-23T07:39:25;5.22;;;2.30;;
67839;SDS011;54636;51.684;5.142;2022-07-23T07:41:51;2.63;;;2.25;;
67839;SDS011;54636;51.684;5.142;2022-07-23T07:44:16;3.45;;;2.50;;
67839;SDS011;54636;51.684;5.142;2022-07-23T07:46:41;2.67;;;2.47;;
67839;SDS011;54636;51.684;5.142;2022-07-23T07:49:07;3.10;;;2.13;;
67839;SDS011;54636;51.684;5.142;2022-07-23T07:51:32;3.58;;;2.42;;
67839;SDS011;54636;51.684;5.142;2022-07-23T07:53:58;5.20;;;2.42;;
67839;SDS011;54636;51.684;5.142;2022-07-23T07:56:24;7.57;;;3.22;;
67839;SDS011;54636;51.684;5.142;2022-07-23T07:58:50;5.25;;;2.65;;
67839;SDS011;54636;51.684;5.142;2022-07-23T08:01:15;3.63;;;2.60;;
67839;SDS011;54636;51.684;5.142;2022-07-23T08:03:43;7.07;;;3.08;;
67839;SDS011;54636;51.684;5.142;2022-07-23T08:06:08;3.42;;;2.65;;
67839;SDS011;54636;51.684;5.142;2022-07-23T08:08:33;8.20;;;2.85;;
67839;SDS011;54636;51.684;5.142;2022-07-23T08:10:59;4.07;;;3.55;;
67839;SDS011;54636;51.684;5.142;2022-07-23T08:13:24;3.53;;;2.70;;
67839;SDS011;54636;51.684;5.142;2022-07-23T08:15:50;6.22;;;3.00;;
67839;SDS011;54636;51.684;5.142;2022-07-23T08:18:17;6.35;;;2.78;;
67839;SDS011;54636;51.684;5.142;2022-07-23T08:20:43;4.25;;;3.08;;
67839;SDS011;54636;51.684;5.142;2022-07-23T08:23:09;4.30;;;3.05;;
67839;SDS011;54636;51.684;5.142;2022-07-23T08:25:36;12.45;;;3.17;;
67839;SDS011;54636;51.684;5.142;2022-07-23T08:28:07;3.13;;;2.83;;
67839;SDS011;54636;51.684;5.142;2022-07-23T08:30:37;6.05;;;2.63;;
67839;SDS011;54636;51.684;5.142;2022-07-23T08:33:04;4.28;;;2.97;;
67839;SDS011;54636;51.684;5.142;2022-07-23T08:37:59;3.83;;;2.20;;
67839;SDS011;54636;51.684;5.142;2022-07-23T08:40:27;4.45;;;2.47;;
67839;SDS011;54636;51.684;5.142;2022-07-23T08:42:54;2.60;;;2.33;;
67839;SDS011;54636;51.684;5.142;2022-07-23T08:45:21;6.20;;;2.80;;
67839;SDS011;54636;51.684;5.142;2022-07-23T08:47:49;6.53;;;2.50;;
67839;SDS011;54636;51.684;5.142;2022-07-23T08:50:20;5.47;;;2.72;;
67839;SDS011;54636;51.684;5.142;2022-07-23T08:52:47;5.90;;;2.53;;
67839;SDS011;54636;51.684;5.142;2022-07-23T08:55:15;2.40;;;2.30;;
67839;SDS011;54636;51.684;5.142;2022-07-23T08:57:42;4.45;;;2.92;;
67839;SDS011;54636;51.684;5.142;2022-07-23T09:00:08;7.68;;;2.83;;
67839;SDS011;54636;51.684;5.142;2022-07-23T09:02:38;3.17;;;2.65;;
67839;SDS011;54636;51.684;5.142;2022-07-23T09:05:05;2.83;;;2.30;;
67839;SDS011;54636;51.684;5.142;2022-07-23T09:07:31;2.72;;;2.25;;
67839;SDS011;54636;51.684;5.142;2022-07-23T09:10:08;4.13;;;2.30;;
67839;SDS011;54636;51.684;5.142;2022-07-23T09:12:35;2.20;;;1.90;;
67839;SDS011;54636;51.684;5.142;2022-07-23T09:15:05;3.42;;;2.28;;
67839;SDS011;54636;51.684;5.142;2022-07-23T09:17:39;5.18;;;2.08;;
67839;SDS011;54636;51.684;5.142;2022-07-23T09:20:09;6.30;;;2.40;;
67839;SDS011;54636;51.684;5.142;2022-07-23T09:22:36;4.82;;;2.45;;
67839;SDS011;54636;51.684;5.142;2022-07-23T09:25:17;2.95;;;2.67;;
67839;SDS011;54636;51.684;5.142;2022-07-23T09:30:15;2.60;;;2.40;;
67839;SDS011;54636;51.684;5.142;2022-07-23T09:32:41;2.25;;;2.15;;
67839;SDS011;54636;51.684;5.142;2022-07-23T09:35:07;8.63;;;2.85;;
67839;SDS011;54636;51.684;5.142;2022-07-23T09:37:33;3.38;;;2.80;;
67839;SDS011;54636;51.684;5.142;2022-07-23T09:40:06;3.35;;;3.05;;
67839;SDS011;54636;51.684;5.142;2022-07-23T09:42:33;3.88;;;2.85;;
67839;SDS011;54636;51.684;5.142;2022-07-23T09:44:59;3.58;;;2.40;;
67839;SDS011;54636;51.684;5.142;2022-07-23T09:47:29;12.13;;;3.85;;
67839;SDS011;54636;51.684;5.142;2022-07-23T09:50:00;2.83;;;2.63;;
67839;SDS011;54636;51.684;5.142;2022-07-23T09:52:35;6.53;;;3.28;;
67839;SDS011;54636;51.684;5.142;2022-07-23T09:55:07;3.30;;;2.55;;
67839;SDS011;54636;51.684;5.142;2022-07-23T09:57:33;6.65;;;3.03;;
67839;SDS011;54636;51.684;5.142;2022-07-23T10:00:03;6.20;;;2.70;;
67839;SDS011;54636;51.684;5.142;2022-07-23T10:02:34;3.42;;;2.88;;
67839;SDS011;54636;51.684;5.142;2022-07-23T10:04:59;5.18;;;2.80;;
67839;SDS011;54636;51.684;5.142;2022-07-23T10:07:27;5.30;;;2.38;;
67839;SDS011;54636;51.684;5.142;2022-07-23T10:09:55;2.58;;;2.38;;
67839;SDS011;54636;51.684;5.142;2022-07-23T10:12:21;3.67;;;2.67;;
67839;SDS011;54636;51.684;5.142;2022-07-23T10:14:57;2.78;;;2.58;;
67839;SDS011;54636;51.684;5.142;2022-07-23T10:17:23;3.03;;;2.55;;
67839;SDS011;54636;51.684;5.142;2022-07-23T10:19:49;2.47;;;2.38;;
67839;SDS011;54636;51.684;5.142;2022-07-23T10:22:18;3.08;;;2.80;;
67839;SDS011;54636;51.684;5.142;2022-07-23T10:36:19;5.80;;;3.10;;
67839;SDS011;54636;51.684;5.142;2022-07-23T10:38:55;2.55;;;2.35;;
67839;SDS011;54636;51.684;5.142;2022-07-23T10:41:32;2.45;;;2.25;;
67839;SDS011;54636;51.684;5.142;2022-07-23T10:46:33;2.83;;;2.15;;
67839;SDS011;54636;51.684;5.142;2022-07-23T10:49:21;2.17;;;1.80;;
67839;SDS011;54636;51.684;5.142;2022-07-23T10:54:38;1.85;;;1.75;;
67839;SDS011;54636;51.684;5.142;2022-07-23T10:57:05;3.35;;;2.00;;
67839;SDS011;54636;51.684;5.142;2022-07-23T10:59:58;2.60;;;1.73;;
67839;SDS011;54636;51.684;5.142;2022-07-23T11:02:44;2.08;;;1.92;;
67839;SDS011;54636;51.684;5.142;2022-07-23T11:05:12;8.43;;;2.05;;
67839;SDS011;54636;51.684;5.142;2022-07-23T11:10:34;2.30;;;1.73;;
67839;SDS011;54636;51.684;5.142;2022-07-23T11:24:08;3.47;;;1.80;;
67839;SDS011;54636;51.684;5.142;2022-07-23T11:32:05;1.70;;;1.60;;
67839;SDS011;54636;51.684;5.142;2022-07-23T11:34:42;3.25;;;1.30;;
67839;SDS011;54636;51.684;5.142;2022-07-23T11:37:12;2.75;;;1.02;;
67839;SDS011;54636;51.684;5.142;2022-07-23T11:39:53;2.80;;;1.50;;
67839;SDS011;54636;51.684;5.142;2022-07-23T11:42:20;2.47;;;2.28;;
67839;SDS011;54636;51.684;5.142;2022-07-23T11:44:46;2.90;;;2.65;;
67839;SDS011;54636;51.684;5.142;2022-07-23T11:47:12;4.35;;;2.60;;
67839;SDS011;54636;51.684;5.142;2022-07-23T11:49:38;2.30;;;2.13;;
67839;SDS011;54636;51.684;5.142;2022-07-23T11:54:34;4.60;;;1.90;;
67839;SDS011;54636;51.684;5.142;2022-07-23T11:57:01;2.05;;;1.92;;
67839;SDS011;54636;51.684;5.142;2022-07-23T11:59:29;1.58;;;1.48;;
67839;SDS011;54636;51.684;5.142;2022-07-23T12:02:00;1.58;;;1.42;;
67839;SDS011;54636;51.684;5.142;2022-07-23T12:04:43;2.35;;;1.50;;
67839;SDS011;54636;51.684;5.142;2022-07-23T12:09:57;1.80;;;1.60;;
67839;SDS011;54636;51.684;5.142;2022-07-23T12:12:24;5.30;;;1.90;;
67839;SDS011;54636;51.684;5.142;2022-07-23T12:14:51;3.65;;;1.73;;
67839;SDS011;54636;51.684;5.142;2022-07-23T12:17:26;2.22;;;2.13;;
67839;SDS011;54636;51.684;5.142;2022-07-23T12:19:54;4.78;;;1.80;;
67839;SDS011;54636;51.684;5.142;2022-07-23T12:22:20;2.08;;;1.98;;
67839;SDS011;54636;51.684;5.142;2022-07-23T12:24:58;12.23;;;2.70;;
67839;SDS011;54636;51.684;5.142;2022-07-23T12:27:29;8.55;;;1.60;;
67839;SDS011;54636;51.684;5.142;2022-07-23T12:29:55;5.03;;;2.00;;
67839;SDS011;54636;51.684;5.142;2022-07-23T12:32:22;2.47;;;1.70;;
67839;SDS011;54636;51.684;5.142;2022-07-23T12:35:02;3.35;;;1.60;;
67839;SDS011;54636;51.684;5.142;2022-07-23T12:37:33;7.30;;;2.05;;
67839;SDS011;54636;51.684;5.142;2022-07-23T12:42:47;4.13;;;1.95;;
67839;SDS011;54636;51.684;5.142;2022-07-23T12:45:13;3.35;;;1.70;;
67839;SDS011;54636;51.684;5.142;2022-07-23T12:50:37;2.10;;;2.00;;
67839;SDS011;54636;51.684;5.142;2022-07-23T12:53:11;2.80;;;1.95;;
67839;SDS011;54636;51.684;5.142;2022-07-23T12:55:41;2.03;;;1.90;;
67839;SDS011;54636;51.684;5.142;2022-07-23T12:58:12;2.95;;;1.92;;
67839;SDS011;54636;51.684;5.142;2022-07-23T13:03:53;6.47;;;2.00;;
67839;SDS011;54636;51.684;5.142;2022-07-23T13:06:24;1.52;;;1.42;;
67839;SDS011;54636;51.684;5.142;2022-07-23T13:08:50;1.42;;;1.30;;
67839;SDS011;54636;51.684;5.142;2022-07-23T13:11:16;2.97;;;1.83;;
67839;SDS011;54636;51.684;5.142;2022-07-23T13:13:42;2.00;;;1.50;;
67839;SDS011;54636;51.684;5.142;2022-07-23T13:16:07;4.25;;;1.92;;
67839;SDS011;54636;51.684;5.142;2022-07-23T13:18:32;2.75;;;1.75;;
67839;SDS011;54636;51.684;5.142;2022-07-23T13:20:58;4.55;;;1.60;;
67839;SDS011;54636;51.684;5.142;2022-07-23T13:23:24;2.78;;;1.85;;
67839;SDS011;54636;51.684;5.142;2022-07-23T13:25:49;2.38;;;1.58;;
67839;SDS011;54636;51.684;5.142;2022-07-23T13:28:16;1.70;;;1.60;;
67839;SDS011;54636;51.684;5.142;2022-07-23T13:30:43;4.82;;;1.50;;
67839;SDS011;54636;51.684;5.142;2022-07-23T13:33:09;5.07;;;1.98;;
67839;SDS011;54636;51.684;5.142;2022-07-23T13:35:35;1.85;;;1.60;;
67839;SDS011;54636;51.684;5.142;2022-07-23T13:38:03;3.25;;;1.77;;
67839;SDS011;54636;51.684;5.142;2022-07-23T13:40:29;2.42;;;1.52;;
67839;SDS011;54636;51.684;5.142;2022-07-23T13:42:54;1.80;;;1.60;;
67839;SDS011;54636;51.684;5.142;2022-07-23T13:45:20;1.52;;;1.40;;
67839;SDS011;54636;51.684;5.142;2022-07-23T13:47:45;5.57;;;2.20;;
67839;SDS011;54636;51.684;5.142;2022-07-23T13:50:11;1.92;;;1.63;;
67839;SDS011;54636;51.684;5.142;2022-07-23T13:52:36;4.30;;;1.75;;
67839;SDS011;54636;51.684;5.142;2022-07-23T13:55:03;3.72;;;1.70;;
67839;SDS011;54636;51.684;5.142;2022-07-23T13:57:30;2.15;;;1.55;;
67839;SDS011;54636;51.684;5.142;2022-07-23T13:59:56;2.10;;;1.50;;
67839;SDS011;54636;51.684;5.142;2022-07-23T14:02:21;2.30;;;1.33;;
67839;SDS011;54636;51.684;5.142;2022-07-23T14:04:47;1.40;;;1.30;;
67839;SDS011;54636;51.684;5.142;2022-07-23T14:07:13;1.67;;;1.40;;
67839;SDS011;54636;51.684;5.142;2022-07-23T14:09:38;2.00;;;1.63;;
67839;SDS011;54636;51.684;5.142;2022-07-23T14:12:04;1.95;;;1.73;;
67839;SDS011;54636;51.684;5.142;2022-07-23T14:14:30;7.05;;;1.67;;
67839;SDS011;54636;51.684;5.142;2022-07-23T14:16:55;2.60;;;1.50;;
67839;SDS011;54636;51.684;5.142;2022-07-23T14:19:22;2.47;;;1.83;;
67839;SDS011;54636;51.684;5.142;2022-07-23T14:21:48;2.75;;;1.60;;
67839;SDS011;54636;51.684;5.142;2022-07-23T14:24:14;2.00;;;1.60;;
67839;SDS011;54636;51.684;5.142;2022-07-23T14:26:40;1.70;;;1.60;;
67839;SDS011;54636;51.684;5.142;2022-07-23T14:29:06;3.85;;;1.75;;
67839;SDS011;54636;51.684;5.142;2022-07-23T14:31:31;3.53;;;2.05;;
67839;SDS011;54636;51.684;5.142;2022-07-23T14:33:57;1.77;;;1.67;;
67839;SDS011;54636;51.684;5.142;2022-07-23T14:36:22;3.03;;;1.67;;
67839;SDS011;54636;51.684;5.142;2022-07-23T14:38:48;2.88;;;1.75;;
67839;SDS011;54636;51.684;5.142;2022-07-23T14:41:13;1.80;;;1.30;;
67839;SDS011;54636;51.684;5.142;2022-07-23T14:43:38;2.13;;;1.73;;
67839;SDS011;54636;51.684;5.142;2022-07-23T14:46:04;1.75;;;1.65;;
67839;SDS011;54636;51.684;5.142;2022-07-23T14:48:30;1.48;;;1.35;;
67839;SDS011;54636;51.684;5.142;2022-07-23T14:50:55;2.08;;;1.30;;
67839;SDS011;54636;51.684;5.142;2022-07-23T14:53:21;3.63;;;1.75;;
67839;SDS011;54636;51.684;5.142;2022-07-23T14:55:46;3.88;;;2.25;;
67839;SDS011;54636;51.684;5.142;2022-07-23T14:58:11;2.40;;;2.20;;
67839;SDS011;54636;51.684;5.142;2022-07-23T15:00:37;3.22;;;1.80;;
67839;SDS011;54636;51.684;5.142;2022-07-23T15:03:02;2.30;;;1.60;;
67839;SDS011;54636;51.684;5.142;2022-07-23T15:05:28;2.22;;;1.73;;
67839;SDS011;54636;51.684;5.142;2022-07-23T15:07:54;2.30;;;2.10;;
67839;SDS011;54636;51.684;5.142;2022-07-23T15:10:19;3.30;;;2.13;;
67839;SDS011;54636;51.684;5.142;2022-07-23T15:12:45;2.30;;;2.10;;
67839;SDS011;54636;51.684;5.142;2022-07-23T15:15:12;3.28;;;1.80;;
67839;SDS011;54636;51.684;5.142;2022-07-23T15:17:37;1.80;;;1.70;;
67839;SDS011;54636;51.684;5.142;2022-07-23T15:20:03;2.00;;;1.90;;
67839;SDS011;54636;51.684;5.142;2022-07-23T15:22:29;4.82;;;2.13;;
67839;SDS011;54636;51.684;5.142;2022-07-23T15:24:55;5.40;;;1.98;;
67839;SDS011;54636;51.684;5.142;2022-07-23T15:27:20;4.25;;;2.00;;
67839;SDS011;54636;51.684;5.142;2022-07-23T15:29:45;4.50;;;2.40;;
67839;SDS011;54636;51.684;5.142;2022-07-23T15:32:11;1.90;;;1.75;;
67839;SDS011;54636;51.684;5.142;2022-07-23T15:34:37;2.08;;;1.90;;
67839;SDS011;54636;51.684;5.142;2022-07-23T15:37:03;1.98;;;1.60;;
67839;SDS011;54636;51.684;5.142;2022-07-23T15:41:58;5.32;;;1.70;;
67839;SDS011;54636;51.684;5.142;2022-07-23T15:44:27;2.13;;;1.70;;